sensor_id;sensor_type;location;lat;lon;timestamp;P1;durP1;ratioP1;P2;durP2;ratioP2
12774;SDS011;6451;42.630;23.382;2022-09-16T00:01:17;9.80;;;3.20;;
12774;SDS011;6451;42.630;23.382;2022-09-16T00:03:46;9.95;;;2.97;;
12774;SDS011;6451;42.630;23.382;2022-09-16T00:06:17;11.98;;;3.22;;
12774;SDS011;6451;42.630;23.382;2022-09-16T00:08:45;6.10;;;2.58;;
12774;SDS011;6451;42.630;23.382;2022-09-16T00:11:15;8.65;;;3.00;;
12774;SDS011;6451;42.630;23.382;2022-09-16T00:13:42;9.10;;;2.72;;
12774;SDS011;6451;42.630;23.382;2022-09-16T00:16:12;8.00;;;2.60;;
12774;SDS011;6451;42.630;23.382;2022-09-16T00:18:43;7.68;;;2.67;;
12774;SDS011;6451;42.630;23.382;2022-09-16T00:21:10;8.80;;;2.53;;
12774;SDS011;6451;42.630;23.382;2022-09-16T00:23:37;10.57;;;3.10;;
12774;SDS011;6451;42.630;23.382;2022-09-16T00:26:04;7.38;;;2.80;;
12774;SDS011;6451;42.630;23.382;2022-09-16T00:28:33;8.70;;;2.88;;
12774;SDS011;6451;42.630;23.382;2022-09-16T00:31:00;7.95;;;2.15;;
12774;SDS011;6451;42.630;23.382;2022-09-16T00:33:27;6.68;;;2.15;;
12774;SDS011;6451;42.630;23.382;2022-09-16T00:36:03;6.72;;;2.55;;
12774;SDS011;6451;42.630;23.382;2022-09-16T00:38:31;8.60;;;2.50;;
12774;SDS011;6451;42.630;23.382;2022-09-16T00:40:58;6.13;;;2.40;;
12774;SDS011;6451;42.630;23.382;2022-09-16T00:43:25;6.72;;;2.85;;
12774;SDS011;6451;42.630;23.382;2022-09-16T00:45:56;6.78;;;2.45;;
12774;SDS011;6451;42.630;23.382;2022-09-16T00:48:28;8.95;;;2.53;;
12774;SDS011;6451;42.630;23.382;2022-09-16T00:50:58;6.80;;;2.58;;
12774;SDS011;6451;42.630;23.382;2022-09-16T00:53:29;5.95;;;2.45;;
12774;SDS011;6451;42.630;23.382;2022-09-16T00:55:59;6.13;;;2.47;;
12774;SDS011;6451;42.630;23.382;2022-09-16T00:58:35;7.72;;;2.47;;
12774;SDS011;6451;42.630;23.382;2022-09-16T01:01:09;8.73;;;2.38;;
12774;SDS011;6451;42.630;23.382;2022-09-16T01:03:37;6.00;;;2.50;;
12774;SDS011;6451;42.630;23.382;2022-09-16T01:06:08;8.15;;;2.90;;
12774;SDS011;6451;42.630;23.382;2022-09-16T01:08:39;10.15;;;2.75;;
12774;SDS011;6451;42.630;23.382;2022-09-16T01:11:09;9.18;;;2.50;;
12774;SDS011;6451;42.630;23.382;2022-09-16T01:13:36;7.13;;;2.42;;
12774;SDS011;6451;42.630;23.382;2022-09-16T01:16:05;6.90;;;2.25;;
12774;SDS011;6451;42.630;23.382;2022-09-16T01:18:37;7.88;;;2.92;;
12774;SDS011;6451;42.630;23.382;2022-09-16T01:21:17;7.22;;;2.80;;
12774;SDS011;6451;42.630;23.382;2022-09-16T01:24:06;8.43;;;2.40;;
12774;SDS011;6451;42.630;23.382;2022-09-16T01:33:04;7.55;;;2.42;;
12774;SDS011;6451;42.630;23.382;2022-09-16T01:35:38;5.78;;;2.50;;
12774;SDS011;6451;42.630;23.382;2022-09-16T01:38:17;10.98;;;2.55;;
12774;SDS011;6451;42.630;23.382;2022-09-16T01:41:00;7.68;;;2.20;;
12774;SDS011;6451;42.630;23.382;2022-09-16T01:43:37;5.93;;;2.33;;
12774;SDS011;6451;42.630;23.382;2022-09-16T01:46:11;9.35;;;2.50;;
12774;SDS011;6451;42.630;23.382;2022-09-16T01:48:50;5.75;;;2.35;;
12774;SDS011;6451;42.630;23.382;2022-09-16T01:51:23;6.60;;;2.30;;
12774;SDS011;6451;42.630;23.382;2022-09-16T01:53:58;9.20;;;2.42;;
12774;SDS011;6451;42.630;23.382;2022-09-16T01:56:32;8.82;;;2.60;;
12774;SDS011;6451;42.630;23.382;2022-09-16T01:59:08;9.90;;;2.70;;
12774;SDS011;6451;42.630;23.382;2022-09-16T02:01:37;6.13;;;2.35;;
12774;SDS011;6451;42.630;23.382;2022-09-16T02:04:12;8.18;;;2.58;;
12774;SDS011;6451;42.630;23.382;2022-09-16T02:06:42;4.78;;;2.30;;
12774;SDS011;6451;42.630;23.382;2022-09-16T02:09:12;9.15;;;2.60;;
12774;SDS011;6451;42.630;23.382;2022-09-16T02:11:42;9.00;;;2.42;;
12774;SDS011;6451;42.630;23.382;2022-09-16T02:14:13;7.50;;;2.50;;
12774;SDS011;6451;42.630;23.382;2022-09-16T02:16:44;4.78;;;2.65;;
12774;SDS011;6451;42.630;23.382;2022-09-16T02:19:18;7.72;;;2.38;;
12774;SDS011;6451;42.630;23.382;2022-09-16T02:21:48;7.20;;;2.88;;
12774;SDS011;6451;42.630;23.382;2022-09-16T02:24:18;11.18;;;2.75;;
12774;SDS011;6451;42.630;23.382;2022-09-16T02:26:50;9.57;;;2.50;;
12774;SDS011;6451;42.630;23.382;2022-09-16T02:29:21;8.27;;;2.35;;
12774;SDS011;6451;42.630;23.382;2022-09-16T02:31:51;8.77;;;2.78;;
12774;SDS011;6451;42.630;23.382;2022-09-16T02:34:24;6.93;;;2.30;;
12774;SDS011;6451;42.630;23.382;2022-09-16T02:36:57;5.18;;;2.20;;
12774;SDS011;6451;42.630;23.382;2022-09-16T02:39:29;8.52;;;2.70;;
12774;SDS011;6451;42.630;23.382;2022-09-16T02:41:59;7.45;;;2.20;;
12774;SDS011;6451;42.630;23.382;2022-09-16T02:44:27;7.57;;;2.78;;
12774;SDS011;6451;42.630;23.382;2022-09-16T02:46:56;12.13;;;2.65;;
12774;SDS011;6451;42.630;23.382;2022-09-16T02:49:28;8.70;;;2.20;;
12774;SDS011;6451;42.630;23.382;2022-09-16T02:52:07;10.98;;;2.83;;
12774;SDS011;6451;42.630;23.382;2022-09-16T02:54:42;5.45;;;2.40;;
12774;SDS011;6451;42.630;23.382;2022-09-16T02:57:15;7.90;;;2.47;;
12774;SDS011;6451;42.630;23.382;2022-09-16T02:59:42;9.55;;;2.45;;
12774;SDS011;6451;42.630;23.382;2022-09-16T03:02:09;8.20;;;3.00;;
12774;SDS011;6451;42.630;23.382;2022-09-16T03:04:38;9.02;;;2.85;;
12774;SDS011;6451;42.630;23.382;2022-09-16T03:07:06;6.03;;;2.20;;
12774;SDS011;6451;42.630;23.382;2022-09-16T03:09:36;7.88;;;2.20;;
12774;SDS011;6451;42.630;23.382;2022-09-16T03:15:18;7.78;;;2.50;;
12774;SDS011;6451;42.630;23.382;2022-09-16T03:18:00;7.00;;;2.58;;
12774;SDS011;6451;42.630;23.382;2022-09-16T03:20:56;9.10;;;2.67;;
12774;SDS011;6451;42.630;23.382;2022-09-16T03:23:32;6.40;;;2.70;;
12774;SDS011;6451;42.630;23.382;2022-09-16T03:26:10;8.27;;;2.42;;
12774;SDS011;6451;42.630;23.382;2022-09-16T03:28:50;4.03;;;2.38;;
12774;SDS011;6451;42.630;23.382;2022-09-16T03:31:25;9.48;;;2.58;;
12774;SDS011;6451;42.630;23.382;2022-09-16T03:33:56;12.07;;;2.75;;
12774;SDS011;6451;42.630;23.382;2022-09-16T03:36:33;5.55;;;2.67;;
12774;SDS011;6451;42.630;23.382;2022-09-16T03:39:04;9.23;;;3.05;;
12774;SDS011;6451;42.630;23.382;2022-09-16T03:41:31;9.88;;;2.78;;
12774;SDS011;6451;42.630;23.382;2022-09-16T03:44:01;6.38;;;2.55;;
12774;SDS011;6451;42.630;23.382;2022-09-16T03:46:28;7.90;;;2.40;;
12774;SDS011;6451;42.630;23.382;2022-09-16T03:48:55;8.05;;;3.00;;
12774;SDS011;6451;42.630;23.382;2022-09-16T03:51:23;7.28;;;2.58;;
12774;SDS011;6451;42.630;23.382;2022-09-16T03:53:52;9.55;;;2.47;;
12774;SDS011;6451;42.630;23.382;2022-09-16T03:56:21;8.65;;;2.63;;
12774;SDS011;6451;42.630;23.382;2022-09-16T03:58:48;9.35;;;2.70;;
12774;SDS011;6451;42.630;23.382;2022-09-16T04:01:15;10.27;;;2.63;;
12774;SDS011;6451;42.630;23.382;2022-09-16T04:03:42;8.07;;;2.75;;
12774;SDS011;6451;42.630;23.382;2022-09-16T04:06:09;6.72;;;2.70;;
12774;SDS011;6451;42.630;23.382;2022-09-16T04:08:36;5.50;;;2.50;;
12774;SDS011;6451;42.630;23.382;2022-09-16T04:11:06;8.32;;;2.40;;
12774;SDS011;6451;42.630;23.382;2022-09-16T04:13:33;7.20;;;2.60;;
12774;SDS011;6451;42.630;23.382;2022-09-16T04:16:01;7.20;;;2.38;;
12774;SDS011;6451;42.630;23.382;2022-09-16T04:18:29;12.45;;;2.95;;
12774;SDS011;6451;42.630;23.382;2022-09-16T04:20:56;10.50;;;3.08;;
12774;SDS011;6451;42.630;23.382;2022-09-16T04:23:24;11.02;;;3.28;;
12774;SDS011;6451;42.630;23.382;2022-09-16T04:25:54;13.27;;;3.47;;
12774;SDS011;6451;42.630;23.382;2022-09-16T04:28:22;13.95;;;3.50;;
12774;SDS011;6451;42.630;23.382;2022-09-16T04:30:50;5.15;;;2.67;;
12774;SDS011;6451;42.630;23.382;2022-09-16T04:33:17;8.85;;;3.08;;
12774;SDS011;6451;42.630;23.382;2022-09-16T04:35:44;10.98;;;3.10;;
12774;SDS011;6451;42.630;23.382;2022-09-16T04:38:11;11.05;;;3.00;;
12774;SDS011;6451;42.630;23.382;2022-09-16T04:40:38;9.27;;;3.20;;
12774;SDS011;6451;42.630;23.382;2022-09-16T04:43:07;7.82;;;3.05;;
12774;SDS011;6451;42.630;23.382;2022-09-16T04:45:36;9.85;;;3.35;;
12774;SDS011;6451;42.630;23.382;2022-09-16T04:48:03;10.63;;;3.70;;
12774;SDS011;6451;42.630;23.382;2022-09-16T04:50:29;18.50;;;3.90;;
12774;SDS011;6451;42.630;23.382;2022-09-16T04:52:56;12.77;;;4.35;;
12774;SDS011;6451;42.630;23.382;2022-09-16T04:55:23;11.77;;;3.40;;
12774;SDS011;6451;42.630;23.382;2022-09-16T04:57:50;16.92;;;3.90;;
12774;SDS011;6451;42.630;23.382;2022-09-16T05:00:17;13.35;;;3.70;;
12774;SDS011;6451;42.630;23.382;2022-09-16T05:02:45;9.95;;;3.85;;
12774;SDS011;6451;42.630;23.382;2022-09-16T05:05:13;12.95;;;4.50;;
12774;SDS011;6451;42.630;23.382;2022-09-16T05:07:41;17.50;;;4.97;;
12774;SDS011;6451;42.630;23.382;2022-09-16T05:10:08;12.63;;;4.28;;
12774;SDS011;6451;42.630;23.382;2022-09-16T05:12:35;17.70;;;4.35;;
12774;SDS011;6451;42.630;23.382;2022-09-16T05:15:02;10.35;;;4.47;;
12774;SDS011;6451;42.630;23.382;2022-09-16T05:17:29;17.17;;;4.45;;
12774;SDS011;6451;42.630;23.382;2022-09-16T05:19:58;14.60;;;4.55;;
12774;SDS011;6451;42.630;23.382;2022-09-16T05:22:25;13.90;;;4.18;;
12774;SDS011;6451;42.630;23.382;2022-09-16T05:24:52;12.65;;;4.38;;
12774;SDS011;6451;42.630;23.382;2022-09-16T05:27:18;19.02;;;4.40;;
12774;SDS011;6451;42.630;23.382;2022-09-16T05:29:46;16.48;;;3.95;;
12774;SDS011;6451;42.630;23.382;2022-09-16T05:32:13;12.25;;;3.70;;
12774;SDS011;6451;42.630;23.382;2022-09-16T05:34:40;10.68;;;3.70;;
12774;SDS011;6451;42.630;23.382;2022-09-16T05:37:08;10.40;;;3.85;;
12774;SDS011;6451;42.630;23.382;2022-09-16T05:39:35;14.32;;;3.75;;
12774;SDS011;6451;42.630;23.382;2022-09-16T05:42:01;11.15;;;3.80;;
12774;SDS011;6451;42.630;23.382;2022-09-16T05:44:28;14.18;;;3.28;;
12774;SDS011;6451;42.630;23.382;2022-09-16T05:46:55;12.63;;;3.20;;
12774;SDS011;6451;42.630;23.382;2022-09-16T05:49:22;10.50;;;2.78;;
12774;SDS011;6451;42.630;23.382;2022-09-16T05:51:50;10.70;;;2.95;;
12774;SDS011;6451;42.630;23.382;2022-09-16T05:54:19;11.75;;;2.92;;
12774;SDS011;6451;42.630;23.382;2022-09-16T05:56:49;10.75;;;3.15;;
12774;SDS011;6451;42.630;23.382;2022-09-16T05:59:17;14.93;;;3.75;;
12774;SDS011;6451;42.630;23.382;2022-09-16T06:01:45;14.25;;;3.95;;
12774;SDS011;6451;42.630;23.382;2022-09-16T06:04:12;9.32;;;2.95;;
12774;SDS011;6451;42.630;23.382;2022-09-16T06:06:40;6.80;;;2.85;;
12774;SDS011;6451;42.630;23.382;2022-09-16T06:09:09;11.23;;;3.03;;
12774;SDS011;6451;42.630;23.382;2022-09-16T06:11:39;13.82;;;2.90;;
12774;SDS011;6451;42.630;23.382;2022-09-16T06:14:08;9.35;;;3.58;;
12774;SDS011;6451;42.630;23.382;2022-09-16T06:16:35;11.10;;;2.85;;
12774;SDS011;6451;42.630;23.382;2022-09-16T06:19:04;11.60;;;2.70;;
12774;SDS011;6451;42.630;23.382;2022-09-16T06:21:34;9.88;;;3.28;;
12774;SDS011;6451;42.630;23.382;2022-09-16T06:24:02;11.85;;;3.13;;
12774;SDS011;6451;42.630;23.382;2022-09-16T06:26:33;15.48;;;3.10;;
12774;SDS011;6451;42.630;23.382;2022-09-16T06:29:02;12.82;;;2.45;;
12774;SDS011;6451;42.630;23.382;2022-09-16T06:31:31;8.18;;;2.55;;
12774;SDS011;6451;42.630;23.382;2022-09-16T06:33:59;8.10;;;2.45;;
12774;SDS011;6451;42.630;23.382;2022-09-16T06:36:26;10.88;;;2.38;;
12774;SDS011;6451;42.630;23.382;2022-09-16T06:38:54;10.80;;;2.50;;
12774;SDS011;6451;42.630;23.382;2022-09-16T06:41:21;8.60;;;2.65;;
12774;SDS011;6451;42.630;23.382;2022-09-16T06:43:49;11.25;;;3.20;;
12774;SDS011;6451;42.630;23.382;2022-09-16T06:46:18;10.00;;;2.70;;
12774;SDS011;6451;42.630;23.382;2022-09-16T06:48:46;15.70;;;2.97;;
12774;SDS011;6451;42.630;23.382;2022-09-16T06:51:16;8.43;;;2.53;;
12774;SDS011;6451;42.630;23.382;2022-09-16T06:53:45;11.95;;;2.85;;
12774;SDS011;6451;42.630;23.382;2022-09-16T06:56:12;13.98;;;3.00;;
12774;SDS011;6451;42.630;23.382;2022-09-16T06:58:43;10.65;;;2.85;;
12774;SDS011;6451;42.630;23.382;2022-09-16T07:01:12;8.80;;;2.75;;
12774;SDS011;6451;42.630;23.382;2022-09-16T07:03:43;11.45;;;2.63;;
12774;SDS011;6451;42.630;23.382;2022-09-16T07:06:12;10.25;;;2.95;;
12774;SDS011;6451;42.630;23.382;2022-09-16T07:08:40;8.45;;;3.28;;
12774;SDS011;6451;42.630;23.382;2022-09-16T07:11:09;8.93;;;2.92;;
12774;SDS011;6451;42.630;23.382;2022-09-16T07:13:37;10.07;;;2.38;;
12774;SDS011;6451;42.630;23.382;2022-09-16T07:16:05;10.35;;;3.15;;
12774;SDS011;6451;42.630;23.382;2022-09-16T07:18:33;8.48;;;2.42;;
12774;SDS011;6451;42.630;23.382;2022-09-16T07:21:02;9.05;;;2.70;;
12774;SDS011;6451;42.630;23.382;2022-09-16T07:23:31;8.45;;;2.88;;
12774;SDS011;6451;42.630;23.382;2022-09-16T07:25:59;9.43;;;2.70;;
12774;SDS011;6451;42.630;23.382;2022-09-16T07:28:27;12.38;;;3.00;;
12774;SDS011;6451;42.630;23.382;2022-09-16T07:30:55;6.60;;;2.95;;
12774;SDS011;6451;42.630;23.382;2022-09-16T07:33:22;8.65;;;3.05;;
12774;SDS011;6451;42.630;23.382;2022-09-16T07:35:49;11.13;;;3.15;;
12774;SDS011;6451;42.630;23.382;2022-09-16T07:38:17;7.00;;;2.60;;
12774;SDS011;6451;42.630;23.382;2022-09-16T07:40:44;11.75;;;3.10;;
12774;SDS011;6451;42.630;23.382;2022-09-16T07:43:11;8.15;;;2.30;;
12774;SDS011;6451;42.630;23.382;2022-09-16T07:45:37;9.00;;;2.67;;
12774;SDS011;6451;42.630;23.382;2022-09-16T07:48:04;11.13;;;2.83;;
12774;SDS011;6451;42.630;23.382;2022-09-16T07:50:31;9.13;;;2.90;;
12774;SDS011;6451;42.630;23.382;2022-09-16T07:52:58;10.65;;;2.88;;
12774;SDS011;6451;42.630;23.382;2022-09-16T07:55:26;11.13;;;3.13;;
12774;SDS011;6451;42.630;23.382;2022-09-16T07:57:53;10.32;;;2.92;;
12774;SDS011;6451;42.630;23.382;2022-09-16T08:00:20;9.23;;;3.13;;
12774;SDS011;6451;42.630;23.382;2022-09-16T08:02:47;7.15;;;2.70;;
12774;SDS011;6451;42.630;23.382;2022-09-16T08:05:14;12.27;;;3.22;;
12774;SDS011;6451;42.630;23.382;2022-09-16T08:07:41;12.55;;;3.47;;
12774;SDS011;6451;42.630;23.382;2022-09-16T08:10:08;10.43;;;3.35;;
12774;SDS011;6451;42.630;23.382;2022-09-16T08:12:36;10.32;;;2.80;;
12774;SDS011;6451;42.630;23.382;2022-09-16T08:15:04;9.18;;;3.40;;
12774;SDS011;6451;42.630;23.382;2022-09-16T08:17:31;8.85;;;2.80;;
12774;SDS011;6451;42.630;23.382;2022-09-16T08:20:01;9.38;;;3.00;;
12774;SDS011;6451;42.630;23.382;2022-09-16T08:22:31;11.23;;;2.92;;
12774;SDS011;6451;42.630;23.382;2022-09-16T08:24:59;10.82;;;2.78;;
12774;SDS011;6451;42.630;23.382;2022-09-16T08:27:26;7.78;;;3.00;;
12774;SDS011;6451;42.630;23.382;2022-09-16T08:29:54;9.88;;;5.10;;
12774;SDS011;6451;42.630;23.382;2022-09-16T08:32:21;11.98;;;3.30;;
12774;SDS011;6451;42.630;23.382;2022-09-16T08:34:48;7.72;;;2.80;;
12774;SDS011;6451;42.630;23.382;2022-09-16T08:37:15;10.57;;;2.90;;
12774;SDS011;6451;42.630;23.382;2022-09-16T08:39:43;8.68;;;2.90;;
12774;SDS011;6451;42.630;23.382;2022-09-16T08:42:29;8.13;;;3.17;;
12774;SDS011;6451;42.630;23.382;2022-09-16T08:45:10;9.45;;;2.90;;
12774;SDS011;6451;42.630;23.382;2022-09-16T08:47:47;9.57;;;3.75;;
12774;SDS011;6451;42.630;23.382;2022-09-16T08:50:21;12.27;;;3.22;;
12774;SDS011;6451;42.630;23.382;2022-09-16T08:52:51;9.93;;;3.25;;
12774;SDS011;6451;42.630;23.382;2022-09-16T08:55:24;11.70;;;3.40;;
12774;SDS011;6451;42.630;23.382;2022-09-16T08:57:56;8.32;;;2.80;;
12774;SDS011;6451;42.630;23.382;2022-09-16T09:00:27;11.88;;;2.90;;
12774;SDS011;6451;42.630;23.382;2022-09-16T09:02:54;10.55;;;3.13;;
12774;SDS011;6451;42.630;23.382;2022-09-16T09:05:26;13.48;;;3.40;;
12774;SDS011;6451;42.630;23.382;2022-09-16T09:08:12;8.82;;;3.08;;
12774;SDS011;6451;42.630;23.382;2022-09-16T09:10:48;7.10;;;2.90;;
12774;SDS011;6451;42.630;23.382;2022-09-16T09:16:15;9.48;;;3.20;;
12774;SDS011;6451;42.630;23.382;2022-09-16T09:18:56;9.32;;;3.00;;
12774;SDS011;6451;42.630;23.382;2022-09-16T09:21:35;11.88;;;3.17;;
12774;SDS011;6451;42.630;23.382;2022-09-16T09:24:18;7.97;;;3.20;;
12774;SDS011;6451;42.630;23.382;2022-09-16T09:26:56;11.02;;;2.97;;
12774;SDS011;6451;42.630;23.382;2022-09-16T09:32:23;11.98;;;3.17;;
12774;SDS011;6451;42.630;23.382;2022-09-16T09:35:02;14.43;;;3.90;;
12774;SDS011;6451;42.630;23.382;2022-09-16T09:37:47;12.02;;;4.07;;
12774;SDS011;6451;42.630;23.382;2022-09-16T09:40:28;16.73;;;3.50;;
12774;SDS011;6451;42.630;23.382;2022-09-16T09:43:03;12.43;;;4.15;;
12774;SDS011;6451;42.630;23.382;2022-09-16T09:45:35;10.52;;;3.92;;
12774;SDS011;6451;42.630;23.382;2022-09-16T09:48:11;8.57;;;3.67;;
12774;SDS011;6451;42.630;23.382;2022-09-16T09:50:46;11.90;;;3.70;;
12774;SDS011;6451;42.630;23.382;2022-09-16T09:53:17;15.68;;;3.60;;
12774;SDS011;6451;42.630;23.382;2022-09-16T09:55:50;14.35;;;3.67;;
12774;SDS011;6451;42.630;23.382;2022-09-16T09:58:23;12.30;;;3.90;;
12774;SDS011;6451;42.630;23.382;2022-09-16T10:00:54;15.60;;;3.78;;
12774;SDS011;6451;42.630;23.382;2022-09-16T10:03:23;12.35;;;3.67;;
12774;SDS011;6451;42.630;23.382;2022-09-16T10:05:52;15.65;;;3.80;;
12774;SDS011;6451;42.630;23.382;2022-09-16T10:08:21;15.57;;;3.90;;
12774;SDS011;6451;42.630;23.382;2022-09-16T10:10:52;12.50;;;3.85;;
12774;SDS011;6451;42.630;23.382;2022-09-16T10:13:22;10.57;;;3.38;;
12774;SDS011;6451;42.630;23.382;2022-09-16T10:15:52;13.48;;;3.60;;
12774;SDS011;6451;42.630;23.382;2022-09-16T10:18:21;16.90;;;4.05;;
12774;SDS011;6451;42.630;23.382;2022-09-16T10:20:55;12.82;;;3.83;;
12774;SDS011;6451;42.630;23.382;2022-09-16T10:23:26;12.65;;;3.60;;
12774;SDS011;6451;42.630;23.382;2022-09-16T10:26:03;11.60;;;3.65;;
12774;SDS011;6451;42.630;23.382;2022-09-16T10:28:51;10.00;;;3.38;;
12774;SDS011;6451;42.630;23.382;2022-09-16T10:31:19;13.02;;;3.65;;
12774;SDS011;6451;42.630;23.382;2022-09-16T10:33:49;7.25;;;3.03;;
12774;SDS011;6451;42.630;23.382;2022-09-16T10:36:17;12.45;;;3.20;;
12774;SDS011;6451;42.630;23.382;2022-09-16T10:38:47;16.95;;;3.72;;
12774;SDS011;6451;42.630;23.382;2022-09-16T10:41:20;9.68;;;2.63;;
12774;SDS011;6451;42.630;23.382;2022-09-16T10:43:50;10.85;;;2.88;;
12774;SDS011;6451;42.630;23.382;2022-09-16T10:46:19;10.00;;;2.75;;
12774;SDS011;6451;42.630;23.382;2022-09-16T10:48:46;5.85;;;2.78;;
12774;SDS011;6451;42.630;23.382;2022-09-16T10:51:21;11.00;;;2.20;;
12774;SDS011;6451;42.630;23.382;2022-09-16T10:53:53;7.32;;;1.80;;
12774;SDS011;6451;42.630;23.382;2022-09-16T10:56:21;6.30;;;2.00;;
12774;SDS011;6451;42.630;23.382;2022-09-16T10:58:59;3.03;;;1.25;;
12774;SDS011;6451;42.630;23.382;2022-09-16T11:01:31;2.90;;;1.33;;
12774;SDS011;6451;42.630;23.382;2022-09-16T11:07:17;4.30;;;1.30;;
12774;SDS011;6451;42.630;23.382;2022-09-16T11:09:56;3.13;;;1.40;;
12774;SDS011;6451;42.630;23.382;2022-09-16T11:12:43;13.68;;;1.70;;
12774;SDS011;6451;42.630;23.382;2022-09-16T11:15:36;2.45;;;1.30;;
12774;SDS011;6451;42.630;23.382;2022-09-16T11:18:22;2.78;;;1.25;;
12774;SDS011;6451;42.630;23.382;2022-09-16T11:21:07;5.85;;;1.40;;
12774;SDS011;6451;42.630;23.382;2022-09-16T11:23:55;2.95;;;1.08;;
12774;SDS011;6451;42.630;23.382;2022-09-16T11:26:37;1.77;;;0.95;;
12774;SDS011;6451;42.630;23.382;2022-09-16T11:29:18;2.05;;;1.10;;
12774;SDS011;6451;42.630;23.382;2022-09-16T11:32:07;2.78;;;1.27;;
12774;SDS011;6451;42.630;23.382;2022-09-16T11:34:48;1.30;;;0.80;;
12774;SDS011;6451;42.630;23.382;2022-09-16T11:37:28;2.28;;;0.82;;
12774;SDS011;6451;42.630;23.382;2022-09-16T11:40:03;1.45;;;0.80;;
12774;SDS011;6451;42.630;23.382;2022-09-16T11:42:41;1.70;;;0.80;;
12774;SDS011;6451;42.630;23.382;2022-09-16T11:45:15;4.10;;;1.10;;
12774;SDS011;6451;42.630;23.382;2022-09-16T11:47:57;2.67;;;1.48;;
12774;SDS011;6451;42.630;23.382;2022-09-16T11:50:49;3.50;;;1.33;;
12774;SDS011;6451;42.630;23.382;2022-09-16T11:53:43;3.47;;;1.30;;
12774;SDS011;6451;42.630;23.382;2022-09-16T11:56:26;0.90;;;0.70;;
12774;SDS011;6451;42.630;23.382;2022-09-16T11:59:01;9.35;;;7.80;;
12774;SDS011;6451;42.630;23.382;2022-09-16T12:01:35;2.03;;;1.20;;
12774;SDS011;6451;42.630;23.382;2022-09-16T12:04:08;4.82;;;1.58;;
12774;SDS011;6451;42.630;23.382;2022-09-16T12:06:41;4.57;;;1.73;;
12774;SDS011;6451;42.630;23.382;2022-09-16T12:09:18;3.28;;;1.75;;
12774;SDS011;6451;42.630;23.382;2022-09-16T12:11:54;3.78;;;1.67;;
12774;SDS011;6451;42.630;23.382;2022-09-16T12:14:30;3.22;;;1.42;;
12774;SDS011;6451;42.630;23.382;2022-09-16T12:17:03;4.50;;;1.55;;
12774;SDS011;6451;42.630;23.382;2022-09-16T12:19:36;1.75;;;0.90;;
12774;SDS011;6451;42.630;23.382;2022-09-16T12:22:11;3.47;;;1.40;;
12774;SDS011;6451;42.630;23.382;2022-09-16T12:24:44;3.80;;;1.40;;
12774;SDS011;6451;42.630;23.382;2022-09-16T12:27:21;4.93;;;1.33;;
12774;SDS011;6451;42.630;23.382;2022-09-16T12:30:01;5.43;;;1.65;;
12774;SDS011;6451;42.630;23.382;2022-09-16T12:32:34;6.00;;;1.60;;
12774;SDS011;6451;42.630;23.382;2022-09-16T12:35:09;3.03;;;1.63;;
12774;SDS011;6451;42.630;23.382;2022-09-16T12:37:43;3.70;;;1.63;;
12774;SDS011;6451;42.630;23.382;2022-09-16T12:40:14;4.57;;;1.77;;
12774;SDS011;6451;42.630;23.382;2022-09-16T12:49:10;6.53;;;2.50;;
12774;SDS011;6451;42.630;23.382;2022-09-16T12:52:03;6.55;;;2.47;;
12774;SDS011;6451;42.630;23.382;2022-09-16T12:57:50;7.32;;;2.42;;
12774;SDS011;6451;42.630;23.382;2022-09-16T13:00:44;6.65;;;2.58;;
12774;SDS011;6451;42.630;23.382;2022-09-16T13:03:24;7.68;;;3.33;;
12774;SDS011;6451;42.630;23.382;2022-09-16T13:05:54;6.30;;;2.58;;
12774;SDS011;6451;42.630;23.382;2022-09-16T13:08:31;6.90;;;2.20;;
12774;SDS011;6451;42.630;23.382;2022-09-16T13:11:00;6.85;;;2.65;;
12774;SDS011;6451;42.630;23.382;2022-09-16T13:13:31;8.45;;;2.92;;
12774;SDS011;6451;42.630;23.382;2022-09-16T13:16:03;7.85;;;2.88;;
12774;SDS011;6451;42.630;23.382;2022-09-16T13:18:39;6.72;;;2.78;;
12774;SDS011;6451;42.630;23.382;2022-09-16T13:21:12;8.63;;;2.90;;
12774;SDS011;6451;42.630;23.382;2022-09-16T13:24:03;4.80;;;2.67;;
12774;SDS011;6451;42.630;23.382;2022-09-16T13:26:38;8.07;;;3.25;;
12774;SDS011;6451;42.630;23.382;2022-09-16T13:35:19;8.13;;;3.05;;
12774;SDS011;6451;42.630;23.382;2022-09-16T13:37:49;7.35;;;3.38;;
12774;SDS011;6451;42.630;23.382;2022-09-16T13:40:17;4.75;;;2.97;;
12774;SDS011;6451;42.630;23.382;2022-09-16T13:42:46;8.80;;;3.20;;
12774;SDS011;6451;42.630;23.382;2022-09-16T13:45:29;5.20;;;2.80;;
12774;SDS011;6451;42.630;23.382;2022-09-16T13:47:59;6.78;;;2.97;;
12774;SDS011;6451;42.630;23.382;2022-09-16T13:50:36;6.78;;;2.95;;
12774;SDS011;6451;42.630;23.382;2022-09-16T13:53:09;5.10;;;2.60;;
12774;SDS011;6451;42.630;23.382;2022-09-16T13:55:45;8.77;;;2.90;;
12774;SDS011;6451;42.630;23.382;2022-09-16T13:58:15;5.50;;;2.60;;
12774;SDS011;6451;42.630;23.382;2022-09-16T14:00:53;5.95;;;2.78;;
12774;SDS011;6451;42.630;23.382;2022-09-16T14:03:35;7.43;;;2.60;;
12774;SDS011;6451;42.630;23.382;2022-09-16T14:06:17;6.25;;;2.58;;
12774;SDS011;6451;42.630;23.382;2022-09-16T14:09:09;3.95;;;2.60;;
12774;SDS011;6451;42.630;23.382;2022-09-16T14:11:48;3.97;;;2.70;;
12774;SDS011;6451;42.630;23.382;2022-09-16T14:14:22;5.75;;;2.35;;
12774;SDS011;6451;42.630;23.382;2022-09-16T14:16:52;6.80;;;2.38;;
12774;SDS011;6451;42.630;23.382;2022-09-16T14:19:24;6.60;;;2.28;;
12774;SDS011;6451;42.630;23.382;2022-09-16T14:22:00;6.00;;;2.20;;
12774;SDS011;6451;42.630;23.382;2022-09-16T14:24:32;6.40;;;2.10;;
12774;SDS011;6451;42.630;23.382;2022-09-16T14:27:01;5.50;;;2.15;;
12774;SDS011;6451;42.630;23.382;2022-09-16T14:29:28;4.75;;;2.10;;
12774;SDS011;6451;42.630;23.382;2022-09-16T14:31:55;5.72;;;2.47;;
12774;SDS011;6451;42.630;23.382;2022-09-16T14:34:26;5.30;;;2.33;;
12774;SDS011;6451;42.630;23.382;2022-09-16T14:36:56;5.78;;;2.40;;
12774;SDS011;6451;42.630;23.382;2022-09-16T14:39:23;6.57;;;2.15;;
12774;SDS011;6451;42.630;23.382;2022-09-16T14:41:53;3.88;;;2.60;;
12774;SDS011;6451;42.630;23.382;2022-09-16T14:44:24;5.75;;;2.38;;
12774;SDS011;6451;42.630;23.382;2022-09-16T14:47:01;7.80;;;2.72;;
12774;SDS011;6451;42.630;23.382;2022-09-16T14:49:35;7.15;;;2.95;;
12774;SDS011;6451;42.630;23.382;2022-09-16T14:52:03;4.85;;;2.60;;
12774;SDS011;6451;42.630;23.382;2022-09-16T14:54:42;6.32;;;2.60;;
12774;SDS011;6451;42.630;23.382;2022-09-16T14:57:13;5.25;;;2.67;;
12774;SDS011;6451;42.630;23.382;2022-09-16T14:59:42;5.03;;;2.92;;
12774;SDS011;6451;42.630;23.382;2022-09-16T15:02:14;6.70;;;2.60;;
12774;SDS011;6451;42.630;23.382;2022-09-16T15:04:53;6.75;;;2.97;;
12774;SDS011;6451;42.630;23.382;2022-09-16T15:07:27;9.95;;;2.70;;
12774;SDS011;6451;42.630;23.382;2022-09-16T15:09:57;6.50;;;3.13;;
12774;SDS011;6451;42.630;23.382;2022-09-16T15:12:28;7.72;;;2.90;;
12774;SDS011;6451;42.630;23.382;2022-09-16T15:15:01;7.68;;;2.88;;
12774;SDS011;6451;42.630;23.382;2022-09-16T15:17:30;6.38;;;3.17;;
12774;SDS011;6451;42.630;23.382;2022-09-16T15:19:58;8.05;;;3.60;;
12774;SDS011;6451;42.630;23.382;2022-09-16T15:22:26;6.40;;;3.53;;
12774;SDS011;6451;42.630;23.382;2022-09-16T15:24:53;8.25;;;2.88;;
12774;SDS011;6451;42.630;23.382;2022-09-16T15:27:23;5.03;;;2.83;;
12774;SDS011;6451;42.630;23.382;2022-09-16T15:29:53;4.93;;;2.60;;
12774;SDS011;6451;42.630;23.382;2022-09-16T15:32:23;5.72;;;2.35;;
12774;SDS011;6451;42.630;23.382;2022-09-16T15:35:12;8.30;;;2.78;;
12774;SDS011;6451;42.630;23.382;2022-09-16T15:37:46;5.57;;;2.38;;
12774;SDS011;6451;42.630;23.382;2022-09-16T15:40:28;5.60;;;2.50;;
12774;SDS011;6451;42.630;23.382;2022-09-16T15:43:00;10.02;;;3.83;;
12774;SDS011;6451;42.630;23.382;2022-09-16T15:45:43;5.70;;;2.60;;